KLAM

Los Alamos Airport

Los Alamos, New Mexico, USA
METAR KLAM 231055Z AUTO 19007KT 10SM CLR 12/09 A3015 RMK AO2 T01160087
Observed Flight Rules
May-23 @ 10:55 UTC (21 minutes ago) Visual Flight Rules
Wind Visibility Clouds
190° at 7 knots 10 miles
  • Clear skies
Temperatures Readings
Current 12°C / 54°F
Dewpoint 9°C / 48°F
Humidity 82%
Altimeter 30.15" Hg
Pressure 1021 hPa
Elevation 2179
METAR KLAM 231055Z AUTO 19007KT 10SM CLR 12/09 A3015 RMK AO2 T01160087
Observed Flight Rules
May-23 @ 10:55 UTC
(21 minutes ago)
VFR
Wind Visibility
190° at 7 knots 10 miles
Clouds
  • Clear skies
Temperature Dewpoint
12°C / 54°F 9°C / 48°F
Humidity Altimeter Pressure
82% 30.15" Hg 1021 hPa